Time;durP1;ratioP1;P1;durP2;ratioP2;P2;SDS_P1;SDS_P2;PMS_P1;PMS_P2;Temp;Humidity;BMP_temperature;BMP_pressure;BME280_temperature;BME280_humidity;BME280_pressure;Samples;Min_cycle;Max_cycle;Signal;HPM_P1;HPM_P2
2023/10/03 00:01:43;;;;;;;14.32;7.68;;;;;;;15.90;46.28;94799.56;5087362;28;20938;-75
2023/10/03 00:04:09;;;;;;;10.93;7.20;;;;;;;15.83;46.44;94801.19;5087741;28;20031;-75
2023/10/03 00:06:38;;;;;;;12.95;7.97;;;;;;;15.80;46.52;94801.81;5083219;28;20020;-74
2023/10/03 00:09:06;;;;;;;14.95;8.18;;;;;;;15.73;46.57;94796.16;5087309;28;21054;-74
2023/10/03 00:11:33;;;;;;;12.82;7.18;;;;;;;15.74;46.37;94792.38;5083034;28;20091;-74
2023/10/03 00:14:00;;;;;;;13.60;7.60;;;;;;;15.74;46.61;94803.13;5078352;28;20052;-75
2023/10/03 00:16:28;;;;;;;11.93;7.35;;;;;;;15.74;46.72;94808.47;5081265;28;20735;-75
2023/10/03 00:18:54;;;;;;;13.65;8.85;;;;;;;15.71;46.90;94801.06;5083610;28;20390;-74
2023/10/03 00:21:20;;;;;;;14.05;8.73;;;;;;;15.71;46.87;94809.09;5084459;28;20102;-75
2023/10/03 00:23:45;;;;;;;10.00;6.90;;;;;;;15.69;46.82;94808.66;5086671;28;20328;-75
2023/10/03 00:26:17;;;;;;;13.18;7.15;;;;;;;15.68;46.53;94805.19;5082534;28;20925;-75
2023/10/03 00:28:44;;;;;;;11.75;8.00;;;;;;;15.49;46.96;94785.22;5089937;28;20051;-74
2023/10/03 00:31:11;;;;;;;12.18;8.20;;;;;;;15.60;47.41;94805.19;5083239;28;20519;-75
2023/10/03 00:33:37;;;;;;;12.50;7.68;;;;;;;15.62;47.21;94800.31;5084437;28;20387;-74
2023/10/03 00:36:03;;;;;;;14.02;7.72;;;;;;;15.61;46.84;94796.03;5084464;28;20028;-75
2023/10/03 00:38:29;;;;;;;13.80;8.23;;;;;;;15.54;47.16;94793.09;5086235;28;20097;-73
2023/10/03 00:40:55;;;;;;;14.57;8.32;;;;;;;15.52;46.99;94784.56;5084400;28;20043;-75
2023/10/03 00:43:21;;;;;;;11.48;7.43;;;;;;;15.60;46.95;94797.13;5082912;28;20036;-75
2023/10/03 00:45:48;;;;;;;10.38;7.43;;;;;;;15.58;46.86;94794.81;5085852;28;20023;-75
2023/10/03 00:48:15;;;;;;;12.40;8.20;;;;;;;15.35;47.31;94762.03;5085302;28;20020;-75
2023/10/03 00:50:45;;;;;;;11.40;7.65;;;;;;;15.57;46.97;94797.78;5085711;28;20069;-75
2023/10/03 00:53:13;;;;;;;17.10;7.82;;;;;;;15.54;47.08;94798.44;5084957;28;20089;-74
2023/10/03 00:55:39;;;;;;;12.55;8.45;;;;;;;15.46;47.24;94798.13;5086404;28;20122;-75
2023/10/03 00:58:07;;;;;;;15.40;8.25;;;;;;;15.35;47.47;94791.50;5081837;28;20150;-74
2023/10/03 01:00:43;;;;;;;17.60;7.57;;;;;;;15.44;47.40;94804.94;5086555;28;20042;-75
2023/10/03 01:03:31;;;;;;;15.82;7.95;;;;;;;15.46;47.33;94810.75;5100498;27;20047;-75
2023/10/03 01:05:59;;;;;;;13.05;8.30;;;;;;;15.48;47.25;94805.88;5064033;28;20281;-75
2023/10/03 01:08:29;;;;;;;12.15;7.57;;;;;;;15.39;47.09;94797.81;5064191;28;20111;-75
2023/10/03 01:11:00;;;;;;;14.57;8.02;;;;;;;15.27;47.09;94784.28;5064121;28;20051;-74
2023/10/03 01:13:33;;;;;;;12.15;8.05;;;;;;;15.36;47.22;94803.81;5097829;27;20600;-76
2023/10/03 01:15:58;;;;;;;11.88;7.88;;;;;;;15.34;46.98;94797.19;5061403;27;20039;-75
2023/10/03 01:18:26;;;;;;;15.77;8.38;;;;;;;15.32;47.10;94792.16;5087414;28;21241;-74
2023/10/03 01:20:55;;;;;;;14.88;8.10;;;;;;;15.22;47.20;94787.13;5084350;28;20077;-75
2023/10/03 01:23:31;;;;;;;11.68;7.97;;;;;;;15.29;47.16;94798.16;5076198;28;20054;-74
2023/10/03 01:25:56;;;;;;;12.13;7.78;;;;;;;15.28;47.02;94790.44;5086318;28;20103;-75
2023/10/03 01:28:22;;;;;;;16.33;8.20;;;;;;;15.20;47.10;94786.69;5085926;28;20130;-75
2023/10/03 01:30:47;;;;;;;13.32;7.20;;;;;;;15.14;47.24;94774.53;5082284;28;21465;-75
2023/10/03 01:33:13;;;;;;;13.20;8.05;;;;;;;15.14;47.21;94785.25;5086221;28;20054;-75
2023/10/03 01:35:38;;;;;;;12.55;6.88;;;;;;;15.17;47.37;94795.34;5085226;28;20126;-75
2023/10/03 01:38:05;;;;;;;16.73;6.72;;;;;;;15.09;47.51;94780.06;5083539;28;20165;-75
2023/10/03 01:40:31;;;;;;;14.13;7.75;;;;;;;15.18;47.38;94793.44;5085576;28;20040;-75
2023/10/03 01:43:02;;;;;;;11.60;7.13;;;;;;;15.18;47.58;94785.41;5091003;28;20081;-74
2023/10/03 01:45:32;;;;;;;18.17;8.63;;;;;;;15.14;47.47;94779.91;5087846;28;20055;-75
2023/10/03 01:48:04;;;;;;;12.15;7.20;;;;;;;15.21;47.59;94796.25;5081880;28;20032;-75
2023/10/03 01:50:33;;;;;;;14.27;8.20;;;;;;;15.19;47.20;94797.69;5084394;28;20036;-75
2023/10/03 01:53:02;;;;;;;14.90;7.95;;;;;;;15.19;47.30;94797.69;5080707;28;20036;-74
2023/10/03 01:55:28;;;;;;;13.63;7.53;;;;;;;15.11;47.50;94785.88;5076861;28;20127;-75
2023/10/03 01:57:54;;;;;;;10.52;7.20;;;;;;;15.07;47.48;94776.91;5084723;28;20039;-75
2023/10/03 02:00:30;;;;;;;12.93;7.72;;;;;;;14.99;47.72;94777.72;5085975;28;20031;-75
2023/10/03 02:03:23;;;;;;;12.88;8.10;;;;;;;14.95;47.57;94790.97;5116793;27;20039;-76
2023/10/03 02:05:48;;;;;;;13.45;7.53;;;;;;;14.97;47.90;94790.63;5085038;28;20039;-75
2023/10/03 02:08:18;;;;;;;9.80;7.22;;;;;;;14.90;47.67;94783.09;5084538;28;20203;-74
2023/10/03 02:10:48;;;;;;;12.45;7.55;;;;;;;14.92;47.95;94780.06;5091749;28;20104;-75
2023/10/03 02:13:14;;;;;;;16.85;8.13;;;;;;;14.95;47.65;94782.13;5087586;28;20036;-76
2023/10/03 02:15:47;;;;;;;11.80;7.82;;;;;;;14.96;47.60;94778.34;5084833;28;20483;-75
2023/10/03 02:18:13;;;;;;;10.45;6.68;;;;;;;14.90;47.83;94772.38;5085448;28;20028;-75
2023/10/03 02:20:53;;;;;;;13.30;7.97;;;;;;;14.90;47.74;94766.22;5083170;28;20718;-75
2023/10/03 02:23:28;;;;;;;13.85;6.82;;;;;;;14.74;47.83;94744.50;5088737;28;20036;-75
2023/10/03 02:26:04;;;;;;;11.63;7.32;;;;;;;14.89;47.69;94770.78;5081605;28;20055;-75
2023/10/03 02:28:30;;;;;;;11.48;7.47;;;;;;;14.88;47.39;94763.06;5102368;28;20119;-75
2023/10/03 02:30:57;;;;;;;12.95;7.43;;;;;;;14.86;47.65;94751.91;5084008;28;20036;-75
2023/10/03 02:33:31;;;;;;;13.57;7.95;;;;;;;14.84;47.95;94759.44;5086088;28;20773;-75
2023/10/03 02:35:56;;;;;;;12.27;8.23;;;;;;;14.85;47.47;94755.66;5090109;28;20043;-75
2023/10/03 02:38:27;;;;;;;13.68;7.45;;;;;;;14.89;47.39;94756.59;5084385;28;20044;-75
2023/10/03 02:40:54;;;;;;;10.90;7.25;;;;;;;14.86;47.40;94754.56;5087716;28;20131;-75
2023/10/03 02:43:20;;;;;;;12.70;7.70;;;;;;;14.75;47.49;94734.56;5091001;28;20099;-75
2023/10/03 02:45:45;;;;;;;10.43;7.45;;;;;;;14.83;47.59;94753.31;5083382;28;20028;-74
2023/10/03 02:48:14;;;;;;;14.35;7.50;;;;;;;14.58;47.80;94721.97;5084399;28;20666;-75
2023/10/03 02:50:47;;;;;;;10.98;7.10;;;;;;;14.71;47.75;94745.13;5084753;28;20032;-75
2023/10/03 02:53:20;;;;;;;10.77;7.28;;;;;;;14.66;47.68;94745.28;5082979;28;20055;-75
2023/10/03 02:55:47;;;;;;;12.15;7.32;;;;;;;14.77;47.64;94756.44;5083850;28;20138;-75
2023/10/03 02:58:16;;;;;;;11.20;7.53;;;;;;;14.75;47.74;94756.78;5082544;28;20040;-75
2023/10/03 03:00:46;;;;;;;15.52;7.43;;;;;;;14.71;48.13;94760.41;5081552;28;20020;-74
2023/10/03 03:03:14;;;;;;;10.65;6.95;;;;;;;14.70;47.78;94756.94;5083510;28;20027;-75
2023/10/03 03:05:42;;;;;;;12.60;6.93;;;;;;;14.68;47.43;94761.81;5086300;28;20023;-75
2023/10/03 03:08:29;;;;;;;8.50;6.45;;;;;;;14.51;47.50;94732.34;5085922;28;20059;-75
2023/10/03 03:10:57;;;;;;;11.40;6.82;;;;;;;14.64;47.98;94770.78;5093970;27;20036;-76
2023/10/03 03:13:24;;;;;;;13.27;7.55;;;;;;;14.58;48.05;94767.47;5085909;28;20115;-75
2023/10/03 03:15:56;;;;;;;12.15;8.18;;;;;;;14.64;48.06;94776.94;5088762;28;20089;-75
2023/10/03 03:18:24;;;;;;;12.00;8.13;;;;;;;14.62;47.73;94773.00;5085402;28;20029;-74
2023/10/03 03:20:57;;;;;;;9.85;6.57;;;;;;;14.55;47.86;94768.91;5091578;28;20046;-75
2023/10/03 03:23:35;;;;;;;10.70;7.07;;;;;;;14.35;47.78;94741.94;5087147;28;20059;-75
2023/10/03 03:26:29;;;;;;;15.60;7.60;;;;;;;14.45;48.10;94773.75;5089250;27;20036;-75
2023/10/03 03:28:50;;;;;;;10.68;7.30;;;;;;;14.45;47.85;94779.91;5084534;28;20653;-74
2023/10/03 03:31:25;;;;;;;13.48;7.60;;;;;;;14.34;48.24;94761.78;5086567;28;20105;-75
2023/10/03 03:33:52;;;;;;;12.15;7.90;;;;;;;14.33;48.11;94770.88;5082391;27;20027;-75
2023/10/03 03:36:19;;;;;;;11.43;7.70;;;;;;;14.27;48.02;94772.94;5099196;27;20487;-75
2023/10/03 03:38:49;;;;;;;12.82;7.82;;;;;;;14.34;48.35;94788.53;5082837;28;20613;-75
2023/10/03 03:41:16;;;;;;;12.30;7.60;;;;;;;14.15;48.25;94765.53;5084045;28;20043;-75
2023/10/03 03:43:44;;;;;;;11.50;8.25;;;;;;;14.25;48.01;94780.50;5084225;28;20127;-75
2023/10/03 03:46:10;;;;;;;12.23;7.25;;;;;;;14.29;48.14;94781.44;5086724;28;20154;-75
2023/10/03 03:48:36;;;;;;;10.18;7.75;;;;;;;14.17;48.48;94776.72;5086052;28;20020;-75
2023/10/03 03:51:05;;;;;;;11.70;7.07;;;;;;;14.24;48.39;94794.97;5095954;27;20035;-75
2023/10/03 03:53:31;;;;;;;9.45;6.45;;;;;;;14.26;48.65;94786.63;5086529;28;20036;-75
2023/10/03 03:55:58;;;;;;;13.90;6.75;;;;;;;14.19;48.35;94781.72;5087886;28;20068;-75
2023/10/03 03:58:24;;;;;;;13.70;8.30;;;;;;;14.27;48.28;94799.72;5086470;28;20050;-75
2023/10/03 04:00:54;;;;;;;11.10;7.03;;;;;;;14.17;48.48;94794.66;5088265;28;20024;-74
2023/10/03 04:03:35;;;;;;;13.73;7.95;;;;;;;14.21;48.55;94806.31;5087745;28;20595;-75
2023/10/03 04:06:01;;;;;;;13.10;7.28;;;;;;;14.23;48.52;94801.41;5086193;28;20078;-75
2023/10/03 04:08:27;;;;;;;16.80;8.80;;;;;;;14.06;48.50;94782.66;5086052;27;20036;-75
2023/10/03 04:10:54;;;;;;;14.25;7.50;;;;;;;14.22;48.39;94797.19;5085379;28;20028;-75
2023/10/03 04:13:21;;;;;;;13.95;8.00;;;;;;;14.18;48.33;94791.66;5116805;27;20127;-74
2023/10/03 04:15:47;;;;;;;13.38;7.38;;;;;;;14.21;48.61;94806.31;5085934;28;20031;-75
2023/10/03 04:18:15;;;;;;;13.57;7.43;;;;;;;14.10;48.75;94796.97;5086751;28;20495;-75
2023/10/03 04:20:44;;;;;;;14.60;7.93;;;;;;;13.99;48.55;94780.44;5084557;28;20051;-75
2023/10/03 04:23:11;;;;;;;15.57;7.88;;;;;;;14.07;48.88;94802.97;5085727;28;20044;-75
2023/10/03 04:25:39;;;;;;;14.93;8.32;;;;;;;14.02;48.82;94793.19;5088666;28;20032;-75
2023/10/03 04:28:05;;;;;;;14.77;8.45;;;;;;;13.98;48.96;94794.13;5085606;28;20031;-75
2023/10/03 04:30:31;;;;;;;12.77;7.93;;;;;;;13.97;48.69;94789.88;5082161;28;20054;-74
2023/10/03 04:32:57;;;;;;;10.52;8.13;;;;;;;13.98;48.83;94796.81;5084472;27;20062;-75
2023/10/03 04:35:23;;;;;;;12.43;7.82;;;;;;;13.97;48.73;94801.38;5082539;27;20730;-75
2023/10/03 04:37:52;;;;;;;15.05;7.85;;;;;;;13.95;49.00;94792.06;5084314;28;20047;-74
2023/10/03 04:40:35;;;;;;;12.68;8.32;;;;;;;13.96;48.89;94790.97;5102798;27;20356;-75
2023/10/03 04:43:34;;;;;;;16.48;8.40;;;;;;;13.82;48.98;94776.91;5083514;28;20552;-75
2023/10/03 04:45:53;;;;;;;15.30;8.10;;;;;;;13.84;48.98;94790.78;5085131;28;20048;-76
2023/10/03 04:48:19;;;;;;;13.85;7.85;;;;;;;13.80;49.15;94779.09;5086302;27;20507;-75
2023/10/03 04:50:44;;;;;;;13.20;6.53;;;;;;;13.88;49.26;94791.72;5085210;28;20067;-74
2023/10/03 04:53:14;;;;;;;14.65;8.57;;;;;;;13.81;49.22;94781.47;5086537;28;20111;-76
2023/10/03 04:55:44;;;;;;;11.93;6.93;;;;;;;13.69;49.22;94751.88;5088455;28;20035;-75
2023/10/03 04:58:10;;;;;;;13.88;8.25;;;;;;;13.89;49.45;94793.28;5083758;28;20044;-75
2023/10/03 05:00:36;;;;;;;10.75;7.82;;;;;;;13.85;49.48;94787.78;5086149;28;20035;-75
2023/10/03 05:03:04;;;;;;;14.10;7.95;;;;;;;13.85;49.90;94785.09;5086761;28;20575;-75
2023/10/03 05:05:32;;;;;;;16.77;8.23;;;;;;;13.81;50.01;94789.50;5084142;28;20024;-76
2023/10/03 05:07:58;;;;;;;14.05;7.60;;;;;;;13.85;50.13;94795.81;5084337;28;20469;-76
2023/10/03 05:10:36;;;;;;;16.52;8.25;;;;;;;13.90;50.03;94792.19;5085486;28;20036;-75
2023/10/03 05:13:01;;;;;;;16.83;8.20;;;;;;;13.93;49.97;94799.63;5084182;28;20048;-75
2023/10/03 05:15:27;;;;;;;17.15;8.65;;;;;;;13.95;49.92;94810.78;5087772;28;20035;-74
2023/10/03 05:17:57;;;;;;;17.65;8.07;;;;;;;13.98;50.33;94812.84;5084733;28;20505;-75
2023/10/03 05:20:34;;;;;;;18.50;8.50;;;;;;;13.80;50.36;94771.88;5082910;28;20031;-75
2023/10/03 05:23:02;;;;;;;13.68;9.27;;;;;;;14.00;50.64;94799.94;5086345;28;20038;-74
2023/10/03 05:25:37;;;;;;;16.50;8.95;;;;;;;14.11;50.61;94814.63;5097993;27;20511;-74
2023/10/03 05:28:05;;;;;;;15.88;8.85;;;;;;;14.07;50.43;94798.41;5084853;28;20047;-75
2023/10/03 05:30:33;;;;;;;15.45;9.25;;;;;;;14.22;50.74;94813.25;5084453;28;20052;-74
2023/10/03 05:33:05;;;;;;;22.83;10.45;;;;;;;14.00;50.35;94790.03;5085551;28;20080;-75
2023/10/03 05:35:32;;;;;;;19.75;10.00;;;;;;;14.10;50.42;94788.97;5077284;28;20131;-75
2023/10/03 05:37:58;;;;;;;21.80;10.73;;;;;;;14.26;50.17;94808.84;5084344;28;20123;-75
2023/10/03 05:40:23;;;;;;;20.02;10.88;;;;;;;14.26;50.66;94805.38;5066332;27;20358;-75
2023/10/03 05:42:49;;;;;;;20.30;10.52;;;;;;;14.37;50.82;94812.00;5088017;28;20085;-75
2023/10/03 05:45:17;;;;;;;32.72;10.88;;;;;;;14.39;50.61;94813.25;5085138;28;20103;-75
2023/10/03 05:47:45;;;;;;;20.58;11.05;;;;;;;14.44;50.56;94813.09;5079886;28;20043;-74
2023/10/03 05:50:14;;;;;;;19.42;12.98;;;;;;;14.35;50.54;94795.47;5081734;28;20088;-75
2023/10/03 05:52:42;;;;;;;19.73;11.23;;;;;;;14.45;50.63;94808.53;5084073;28;20040;-75
2023/10/03 05:55:10;;;;;;;16.73;11.65;;;;;;;14.50;50.90;94819.09;5080339;28;20043;-75
2023/10/03 05:57:39;;;;;;;23.10;11.88;;;;;;;14.52;50.75;94820.34;5084270;28;20434;-74
2023/10/03 06:00:09;;;;;;;23.75;11.63;;;;;;;14.56;50.40;94807.97;5085624;28;20020;-75
2023/10/03 06:02:39;;;;;;;19.35;11.60;;;;;;;14.72;50.25;94818.19;5081643;28;20078;-75
2023/10/03 06:05:08;;;;;;;22.63;11.38;;;;;;;14.78;50.27;94823.09;5086101;28;20646;-74
2023/10/03 06:07:34;;;;;;;24.25;13.73;;;;;;;14.84;49.76;94813.81;5083357;28;20042;-74
2023/10/03 06:10:00;;;;;;;28.27;11.73;;;;;;;14.86;49.76;94818.84;5077327;28;20036;-74
2023/10/03 06:12:30;;;;;;;25.45;11.98;;;;;;;14.81;49.96;94821.69;5083134;28;20041;-75
2023/10/03 06:14:56;;;;;;;27.45;13.10;;;;;;;14.93;49.53;94821.81;5086238;28;20032;-74
2023/10/03 06:17:21;;;;;;;32.42;13.70;;;;;;;14.85;50.06;94806.56;5083491;28;20040;-75
2023/10/03 06:19:47;;;;;;;38.25;13.80;;;;;;;14.91;49.61;94810.66;5086570;28;20032;-75
2023/10/03 06:22:12;;;;;;;23.08;12.52;;;;;;;15.01;49.45;94826.38;5083523;28;20028;-74
2023/10/03 06:24:39;;;;;;;28.42;13.25;;;;;;;15.08;49.63;94829.38;5085739;28;20067;-75
2023/10/03 06:27:08;;;;;;;33.70;14.75;;;;;;;15.14;49.81;94832.69;5081464;28;20122;-74
2023/10/03 06:29:34;;;;;;;31.17;14.70;;;;;;;15.05;48.90;94832.72;5084978;28;20113;-74
2023/10/03 06:32:00;;;;;;;31.08;13.32;;;;;;;15.07;49.08;94827.81;5084032;28;20507;-76
2023/10/03 06:34:28;;;;;;;30.70;15.20;;;;;;;15.12;49.09;94819.59;5081530;28;20052;-74
2023/10/03 06:36:53;;;;;;;25.98;13.65;;;;;;;15.24;48.48;94838.53;5082237;28;20031;-75
2023/10/03 06:39:19;;;;;;;19.30;12.45;;;;;;;15.14;48.95;94817.41;5085499;28;20045;-75
2023/10/03 06:41:45;;;;;;;28.92;13.18;;;;;;;15.22;48.89;94830.00;5086756;28;20664;-75
2023/10/03 06:44:11;;;;;;;24.33;12.10;;;;;;;15.35;48.40;94839.75;5092467;28;20032;-74
2023/10/03 06:46:38;;;;;;;22.23;12.57;;;;;;;15.26;48.29;94828.25;5090843;28;20027;-75
2023/10/03 06:49:03;;;;;;;21.98;12.55;;;;;;;15.23;48.99;94817.41;5088374;28;20736;-75
2023/10/03 06:51:31;;;;;;;39.95;12.43;;;;;;;15.36;48.84;94840.53;5089343;28;20035;-74
2023/10/03 06:53:57;;;;;;;24.70;12.23;;;;;;;15.37;48.99;94837.56;5085564;27;20036;-75
2023/10/03 06:56:24;;;;;;;28.70;13.60;;;;;;;15.47;49.19;94841.81;5087532;28;20697;-75
2023/10/03 06:58:49;;;;;;;30.05;14.38;;;;;;;15.36;48.59;94817.22;5088818;28;20035;-75
2023/10/03 07:01:16;;;;;;;30.77;14.20;;;;;;;15.60;48.92;94840.03;5074337;28;20051;-75
2023/10/03 07:03:42;;;;;;;29.35;12.48;;;;;;;15.65;48.48;94843.34;5087157;28;20353;-75
2023/10/03 07:06:08;;;;;;;26.30;12.90;;;;;;;15.58;48.67;94847.63;5087525;28;20566;-75
2023/10/03 07:08:37;;;;;;;18.90;12.35;;;;;;;15.60;48.29;94835.47;5086067;28;20020;-74
2023/10/03 07:11:02;;;;;;;22.70;11.65;;;;;;;15.73;48.49;94849.81;5086345;28;20621;-75
2023/10/03 07:13:29;;;;;;;23.38;12.50;;;;;;;15.84;48.15;94857.16;5087867;28;20135;-75
2023/10/03 07:15:58;;;;;;;21.25;12.48;;;;;;;15.92;48.00;94854.78;5089339;28;20059;-74
2023/10/03 07:18:23;;;;;;;23.38;12.52;;;;;;;15.92;47.75;94841.38;5085948;28;20166;-74
2023/10/03 07:20:50;;;;;;;25.90;13.45;;;;;;;15.85;48.27;94863.31;5082573;28;20040;-75
2023/10/03 07:23:16;;;;;;;21.15;13.40;;;;;;;15.97;47.75;94859.97;5088754;28;20371;-75
2023/10/03 07:25:41;;;;;;;21.05;12.75;;;;;;;16.02;46.71;94852.56;5079307;28;20093;-75
2023/10/03 07:28:07;;;;;;;22.20;13.13;;;;;;;16.03;46.58;94864.06;5086223;28;20104;-75
2023/10/03 07:30:33;;;;;;;26.60;14.07;;;;;;;16.09;46.89;94868.91;5087996;28;20048;-74
2023/10/03 07:32:58;;;;;;;24.55;14.32;;;;;;;16.16;46.69;94868.44;5086926;28;20051;-75
2023/10/03 07:35:24;;;;;;;19.17;14.05;;;;;;;16.17;46.74;94860.06;5082161;28;20040;-74
2023/10/03 07:37:51;;;;;;;19.15;13.85;;;;;;;16.17;47.42;94859.28;5085308;28;20089;-74
2023/10/03 07:40:17;;;;;;;24.60;14.10;;;;;;;16.14;46.90;94858.00;5083106;28;21209;-75
2023/10/03 07:42:43;;;;;;;20.70;13.30;;;;;;;16.14;46.68;94843.81;5088635;28;20019;-74
2023/10/03 07:45:09;;;;;;;25.30;15.38;;;;;;;16.12;47.77;94860.25;5084771;28;20050;-75
2023/10/03 07:47:44;;;;;;;26.63;14.30;;;;;;;16.15;47.46;94862.28;5084179;28;20090;-75
2023/10/03 07:50:13;;;;;;;24.33;14.70;;;;;;;16.23;46.58;94844.56;5082193;28;20522;-75
2023/10/03 07:52:39;;;;;;;22.98;13.02;;;;;;;16.20;46.73;94851.34;5088936;28;20495;-75
2023/10/03 07:55:06;;;;;;;26.75;15.05;;;;;;;16.25;47.08;94853.84;5082479;28;20044;-75
2023/10/03 07:57:31;;;;;;;34.78;19.38;;;;;;;16.35;47.36;94865.38;5088227;28;20077;-75
2023/10/03 07:59:57;;;;;;;23.08;14.05;;;;;;;16.42;45.91;94849.56;5081278;28;20754;-76
2023/10/03 08:02:26;;;;;;;26.88;13.98;;;;;;;16.49;46.22;94853.28;5085557;28;20456;-76
2023/10/03 08:05:00;;;;;;;19.73;13.63;;;;;;;16.45;46.33;94848.91;5085292;28;20130;-75
2023/10/03 08:07:29;;;;;;;22.88;14.13;;;;;;;16.33;46.83;94850.38;5086863;28;20027;-75
2023/10/03 08:09:55;;;;;;;37.15;14.55;;;;;;;16.46;45.94;94850.47;5085525;28;20046;-76
2023/10/03 08:12:24;;;;;;;20.63;13.82;;;;;;;16.55;45.65;94859.25;5087131;28;20028;-75
2023/10/03 08:14:52;;;;;;;21.90;14.00;;;;;;;16.67;45.23;94859.34;5079950;28;20044;-76
2023/10/03 08:17:30;;;;;;;33.22;15.07;;;;;;;16.70;45.06;94850.63;5085224;27;20075;-75
2023/10/03 08:20:04;;;;;;;30.75;15.05;;;;;;;16.70;45.00;94850.63;5084876;28;20040;-75
2023/10/03 08:22:41;;;;;;;21.92;13.77;;;;;;;16.74;45.69;94854.25;5092703;28;20031;-75
2023/10/03 08:25:08;;;;;;;26.75;14.98;;;;;;;16.77;44.93;94861.63;5083285;28;20039;-76
2023/10/03 08:27:33;;;;;;;20.60;14.02;;;;;;;16.71;44.72;94836.09;5082388;28;20069;-75
2023/10/03 08:30:00;;;;;;;23.63;13.73;;;;;;;16.78;44.64;94841.72;5083553;28;20796;-75
2023/10/03 08:32:27;;;;;;;19.90;13.45;;;;;;;16.86;44.53;94845.47;5085708;28;20036;-75
2023/10/03 08:34:52;;;;;;;22.10;12.02;;;;;;;16.84;44.60;94850.38;5087532;28;20047;-76
2023/10/03 08:37:21;;;;;;;21.48;14.30;;;;;;;16.71;45.25;94847.63;5085002;28;20498;-76
2023/10/03 08:39:51;;;;;;;21.35;12.57;;;;;;;16.80;45.64;94839.50;5086137;28;20147;-75
2023/10/03 08:42:34;;;;;;;19.33;12.45;;;;;;;16.97;44.93;94844.72;5086003;28;20019;-76
2023/10/03 08:45:22;;;;;;;32.53;13.48;;;;;;;17.04;44.89;94833.47;5085117;28;20044;-75
2023/10/03 08:47:51;;;;;;;18.20;12.57;;;;;;;17.12;44.36;94846.81;5086803;28;21284;-75
2023/10/03 08:50:33;;;;;;;21.80;11.85;;;;;;;17.22;43.36;94839.50;5081772;28;20161;-76
2023/10/03 08:53:16;;;;;;;19.83;11.35;;;;;;;16.88;44.02;94825.22;5083325;28;20689;-75
2023/10/03 08:55:50;;;;;;;22.10;12.50;;;;;;;16.99;44.33;94826.41;5085844;28;20044;-75
2023/10/03 08:58:18;;;;;;;18.73;11.88;;;;;;;17.03;44.77;94816.56;5084753;28;20129;-75
2023/10/03 09:00:47;;;;;;;22.50;12.48;;;;;;;17.10;45.09;94827.56;5084250;28;20055;-75
2023/10/03 09:03:18;;;;;;;26.50;12.70;;;;;;;17.12;44.95;94829.91;5083734;28;20047;-75
2023/10/03 09:05:44;;;;;;;20.35;12.02;;;;;;;17.20;45.63;94818.34;5082917;28;20550;-75
2023/10/03 09:08:13;;;;;;;22.70;11.20;;;;;;;17.37;44.09;94818.16;5085561;28;20043;-75
2023/10/03 09:11:00;;;;;;;18.15;10.25;;;;;;;17.45;44.68;94816.53;5081650;28;20032;-76
2023/10/03 09:13:34;;;;;;;22.88;11.48;;;;;;;17.39;44.20;94823.22;5084712;28;20044;-75
2023/10/03 09:16:02;;;;;;;18.25;9.93;;;;;;;17.32;44.54;94812.22;5082773;28;20043;-76
2023/10/03 09:18:40;;;;;;;28.52;10.05;;;;;;;17.38;43.99;94817.06;5074463;28;20471;-75
2023/10/03 09:21:23;;;;;;;14.68;10.23;;;;;;;17.37;44.03;94812.00;5082044;28;20268;-74
2023/10/03 09:24:01;;;;;;;22.33;11.32;;;;;;;17.57;43.49;94819.25;5079689;28;20059;-76
2023/10/03 09:26:47;;;;;;;20.27;9.77;;;;;;;17.66;43.62;94817.22;5084991;28;20043;-75
2023/10/03 09:29:29;;;;;;;26.92;8.82;;;;;;;17.79;43.46;94810.78;5081725;28;21040;-75
2023/10/03 09:31:59;;;;;;;16.77;9.85;;;;;;;17.89;42.33;94799.56;5082128;28;20123;-75
2023/10/03 09:34:30;;;;;;;22.80;11.30;;;;;;;17.67;42.01;94799.97;5082269;28;20412;-76
2023/10/03 09:37:02;;;;;;;15.82;9.25;;;;;;;17.78;42.71;94793.06;5083537;27;20035;-76
2023/10/03 09:39:51;;;;;;;21.05;9.30;;;;;;;17.86;42.77;94792.16;5072695;28;20055;-75
2023/10/03 09:42:18;;;;;;;17.05;9.88;;;;;;;17.96;42.76;94799.81;5083928;28;20542;-75
2023/10/03 09:44:48;;;;;;;17.88;9.30;;;;;;;17.96;42.11;94791.75;5076047;27;20051;-76
2023/10/03 09:47:17;;;;;;;22.17;10.27;;;;;;;17.79;42.92;94800.00;5072200;27;20038;-76
2023/10/03 09:49:47;;;;;;;16.67;9.68;;;;;;;17.90;43.05;94798.44;5084290;28;20036;-76
2023/10/03 09:52:24;;;;;;;17.55;10.35;;;;;;;18.06;42.95;94797.81;5076161;28;20732;-76
2023/10/03 09:54:53;;;;;;;19.15;9.98;;;;;;;18.24;42.15;94793.75;5079733;28;20648;-76
2023/10/03 09:57:38;;;;;;;15.95;10.27;;;;;;;18.19;42.53;94780.53;5085469;28;20553;-75
2023/10/03 10:00:23;;;;;;;20.23;9.50;;;;;;;18.02;42.35;94787.72;5075382;28;20119;-76
2023/10/03 10:02:54;;;;;;;18.02;10.25;;;;;;;18.21;42.12;94789.06;5082548;27;20502;-76
2023/10/03 10:05:23;;;;;;;24.17;9.65;;;;;;;18.36;41.87;94796.47;5082461;28;20131;-75
2023/10/03 10:07:56;;;;;;;14.70;9.68;;;;;;;18.35;41.67;94798.34;5084237;27;20404;-76
2023/10/03 10:10:22;;;;;;;19.08;10.02;;;;;;;18.30;41.85;94766.28;5082565;27;20775;-77
2023/10/03 10:13:13;;;;;;;18.50;9.65;;;;;;;18.39;41.62;94790.38;5103566;27;20179;-75
2023/10/03 10:16:20;;;;;;;18.10;10.05;;;;;;;18.39;41.61;94779.59;5083758;28;20028;-76
2023/10/03 10:18:55;;;;;;;22.05;9.48;;;;;;;18.57;40.56;94775.56;5080538;28;20036;-76
2023/10/03 10:21:24;;;;;;;17.40;9.40;;;;;;;18.68;42.04;94770.47;5086107;28;20845;-75
2023/10/03 10:24:20;;;;;;;22.30;9.75;;;;;;;18.85;40.49;94764.84;5079969;28;20499;-75
2023/10/03 10:26:53;;;;;;;16.25;8.60;;;;;;;18.83;41.49;94762.47;5078881;27;20482;-76
2023/10/03 10:29:19;;;;;;;16.55;7.57;;;;;;;18.80;40.89;94755.09;5084195;28;20588;-76
2023/10/03 10:32:00;;;;;;;17.75;8.68;;;;;;;18.88;40.54;94758.75;5080810;28;20047;-76
2023/10/03 10:34:36;;;;;;;18.52;8.35;;;;;;;18.80;40.34;94748.91;5073225;27;20039;-75
2023/10/03 10:37:09;;;;;;;19.43;8.03;;;;;;;18.96;40.14;94738.97;5091727;27;20609;-76
2023/10/03 10:40:17;;;;;;;16.52;8.55;;;;;;;19.11;40.01;94740.94;5087859;28;20501;-75
2023/10/03 10:42:56;;;;;;;18.40;9.35;;;;;;;19.17;39.27;94744.13;5059192;28;21049;-76
2023/10/03 10:45:23;;;;;;;14.88;9.52;;;;;;;19.13;39.72;94727.09;5050400;28;20028;-75
2023/10/03 10:47:51;;;;;;;18.23;10.02;;;;;;;19.18;39.35;94729.53;5086624;28;20027;-76
2023/10/03 10:50:21;;;;;;;18.92;10.00;;;;;;;19.14;39.57;94717.88;5086110;27;20035;-75
2023/10/03 10:52:57;;;;;;;20.48;9.65;;;;;;;19.19;39.32;94713.00;5088781;27;20043;-75
2023/10/03 10:55:27;;;;;;;17.08;9.20;;;;;;;19.19;39.71;94709.53;5087076;28;20131;-76
2023/10/03 10:58:12;;;;;;;14.27;9.32;;;;;;;19.17;39.67;94720.66;5087159;28;20020;-76
2023/10/03 11:00:39;;;;;;;20.85;10.02;;;;;;;19.18;40.30;94724.13;5085900;28;20864;-75
2023/10/03 11:03:06;;;;;;;17.58;9.90;;;;;;;19.27;39.96;94722.84;5093351;28;20020;-74
2023/10/03 11:05:45;;;;;;;19.05;9.35;;;;;;;19.38;38.95;94706.94;5087981;28;20070;-76
2023/10/03 11:08:11;;;;;;;14.48;8.68;;;;;;;19.41;40.37;94708.94;5083439;28;20101;-76
2023/10/03 11:10:49;;;;;;;18.88;8.98;;;;;;;19.23;40.32;94708.50;5084935;28;20123;-75
2023/10/03 11:13:14;;;;;;;13.52;9.43;;;;;;;19.18;39.98;94691.78;5084942;28;20035;-76
2023/10/03 11:15:55;;;;;;;16.52;9.57;;;;;;;19.42;39.74;94688.94;5085649;28;20061;-76
2023/10/03 11:18:31;;;;;;;17.92;8.40;;;;;;;19.53;39.55;94692.72;5085618;28;20032;-76
2023/10/03 11:20:58;;;;;;;18.73;9.00;;;;;;;19.33;39.68;94689.09;5086557;27;20602;-75
2023/10/03 11:23:23;;;;;;;17.85;9.15;;;;;;;19.47;39.80;94691.41;5083002;27;20032;-76
2023/10/03 11:26:00;;;;;;;16.45;9.93;;;;;;;19.03;40.59;94700.63;5080162;28;20113;-75
2023/10/03 11:28:28;;;;;;;21.15;9.23;;;;;;;19.33;40.37;94693.72;5087335;28;20155;-75
2023/10/03 11:31:01;;;;;;;15.10;9.15;;;;;;;19.38;39.90;94690.75;5084780;27;20047;-75
2023/10/03 11:33:44;;;;;;;14.00;8.73;;;;;;;19.52;39.14;94679.56;5085359;28;20054;-75
2023/10/03 11:36:11;;;;;;;15.98;10.05;;;;;;;19.51;39.31;94678.78;5085775;28;20104;-76